Time;durP1;ratioP1;P1;durP2;ratioP2;P2;SDS_P1;SDS_P2;PMS_P1;PMS_P2;Temp;Humidity;BMP_temperature;BMP_pressure;BME280_temperature;BME280_humidity;BME280_pressure;Samples;Min_cycle;Max_cycle;Signal;HPM_P1;HPM_P2
2023/07/27 00:00:06;;;;;;;7.45;5.20;;;15.90;99.90;;;;;;5092987;28;20028;-49
2023/07/27 00:02:32;;;;;;;7.80;4.80;;;15.90;99.90;;;;;;5092748;28;20379;-49
2023/07/27 00:04:58;;;;;;;8.15;5.07;;;15.90;99.90;;;;;;5092919;28;20032;-51
2023/07/27 00:07:26;;;;;;;8.05;5.25;;;15.90;99.90;;;;;;5091024;28;20253;-50
2023/07/27 00:09:52;;;;;;;6.90;3.88;;;15.90;99.90;;;;;;5092231;28;20097;-53
2023/07/27 00:12:18;;;;;;;8.68;4.78;;;15.90;99.90;;;;;;5092593;28;20051;-52
2023/07/27 00:14:44;;;;;;;8.75;5.20;;;15.90;99.90;;;;;;5092421;28;20043;-48
2023/07/27 00:17:09;;;;;;;8.57;5.18;;;15.90;99.90;;;;;;5083493;28;20036;-49
2023/07/27 00:19:35;;;;;;;7.43;5.22;;;15.90;99.90;;;;;;5072130;28;20076;-50
2023/07/27 00:22:00;;;;;;;8.40;5.50;;;15.90;99.90;;;;;;5079833;28;20036;-49
2023/07/27 00:24:26;;;;;;;10.45;5.60;;;15.90;99.90;;;;;;5072440;28;20083;-51
2023/07/27 00:26:52;;;;;;;7.88;5.60;;;15.90;99.90;;;;;;5071774;28;20459;-49
2023/07/27 00:29:18;;;;;;;7.65;5.50;;;15.90;99.90;;;;;;5072185;28;20037;-52
2023/07/27 00:31:44;;;;;;;8.27;5.47;;;15.90;99.90;;;;;;5073053;28;20066;-49
2023/07/27 00:34:09;;;;;;;8.85;5.72;;;15.90;99.90;;;;;;5082010;28;20040;-51
2023/07/27 00:36:35;;;;;;;8.70;5.57;;;15.90;99.90;;;;;;5071923;28;20032;-48
2023/07/27 00:39:01;;;;;;;9.82;5.25;;;15.90;99.90;;;;;;5071717;28;20145;-49
2023/07/27 00:41:26;;;;;;;8.98;6.15;;;15.90;99.90;;;;;;5071132;28;20083;-48
2023/07/27 00:43:52;;;;;;;7.72;5.65;;;15.90;99.90;;;;;;5072015;28;20086;-52
2023/07/27 00:46:18;;;;;;;9.82;6.07;;;15.90;99.90;;;;;;5073137;28;20046;-51
2023/07/27 00:48:44;;;;;;;8.15;5.57;;;15.80;99.90;;;;;;5092288;28;20047;-52
2023/07/27 00:51:10;;;;;;;9.07;5.55;;;15.80;99.90;;;;;;5090462;28;20107;-51
2023/07/27 00:53:36;;;;;;;8.75;5.85;;;15.80;99.90;;;;;;5090479;28;20561;-50
2023/07/27 00:56:02;;;;;;;7.63;5.47;;;15.90;99.90;;;;;;5091632;28;20063;-50
2023/07/27 00:58:28;;;;;;;8.50;5.93;;;15.80;99.90;;;;;;5091395;28;20050;-51
2023/07/27 01:00:54;;;;;;;8.23;5.63;;;15.80;99.90;;;;;;5091172;28;20044;-49
2023/07/27 01:03:20;;;;;;;8.88;5.75;;;15.80;99.90;;;;;;5091344;28;20032;-50
2023/07/27 01:05:47;;;;;;;9.05;5.65;;;15.80;99.90;;;;;;5091523;28;20036;-49
2023/07/27 01:08:13;;;;;;;9.57;6.13;;;15.70;99.90;;;;;;5069979;28;20395;-48
2023/07/27 01:11:00;;;;;;;8.52;5.97;;;15.70;99.90;;;;;;5070937;28;20036;-49
2023/07/27 01:13:48;;;;;;;9.48;6.35;;;15.80;99.90;;;;;;5070977;28;20072;-50
2023/07/27 01:16:21;;;;;;;11.20;6.65;;;15.70;99.90;;;;;;5084829;28;20028;-48
2023/07/27 01:18:53;;;;;;;8.32;5.97;;;15.70;99.90;;;;;;5091284;28;20048;-48
2023/07/27 01:21:28;;;;;;;9.48;5.97;;;15.70;99.90;;;;;;5091275;28;20394;-48
2023/07/27 01:24:12;;;;;;;9.20;6.20;;;15.70;99.90;;;;;;5091162;28;20051;-50
2023/07/27 01:27:06;;;;;;;8.05;5.78;;;15.70;99.90;;;;;;5091046;28;20040;-50
2023/07/27 01:29:37;;;;;;;11.63;6.25;;;15.70;99.90;;;;;;5090041;28;20521;-48
2023/07/27 01:32:04;;;;;;;9.85;6.28;;;15.60;99.90;;;;;;5091163;28;20036;-51
2023/07/27 01:34:33;;;;;;;8.68;6.05;;;15.60;99.90;;;;;;5090992;28;20028;-48
2023/07/27 01:37:03;;;;;;;8.55;6.40;;;15.60;99.90;;;;;;5091106;28;20040;-51
2023/07/27 01:39:33;;;;;;;9.48;6.90;;;15.60;99.90;;;;;;5090705;28;20089;-52
2023/07/27 01:42:01;;;;;;;8.68;6.15;;;15.60;99.90;;;;;;5090718;28;20044;-48
2023/07/27 01:44:29;;;;;;;9.57;7.07;;;15.60;99.90;;;;;;5090897;28;20051;-49
2023/07/27 01:46:56;;;;;;;8.90;6.57;;;15.60;99.90;;;;;;5090934;28;20116;-46
2023/07/27 01:49:23;;;;;;;9.00;6.38;;;15.60;99.90;;;;;;5090751;28;20046;-47
2023/07/27 01:51:50;;;;;;;8.32;6.60;;;15.50;99.90;;;;;;5081399;28;20048;-53
2023/07/27 01:54:16;;;;;;;10.13;6.50;;;15.50;99.90;;;;;;5070973;28;20041;-47
2023/07/27 01:56:45;;;;;;;9.73;6.55;;;15.60;99.90;;;;;;5070760;28;20040;-50
2023/07/27 01:59:11;;;;;;;11.50;7.25;;;15.50;99.90;;;;;;5066955;28;20486;-50
2023/07/27 02:01:38;;;;;;;10.20;6.43;;;15.50;99.90;;;;;;5068291;28;20060;-50
2023/07/27 02:04:04;;;;;;;9.35;6.63;;;15.60;99.90;;;;;;5068912;28;20037;-48
2023/07/27 02:06:30;;;;;;;11.20;6.88;;;15.50;99.90;;;;;;5068057;28;20036;-51
2023/07/27 02:08:56;;;;;;;10.02;6.18;;;15.50;99.90;;;;;;5068740;28;20045;-51
2023/07/27 02:11:24;;;;;;;9.00;6.55;;;15.50;99.90;;;;;;5070812;28;20472;-50
2023/07/27 02:14:01;;;;;;;10.55;6.22;;;15.50;99.90;;;;;;5073407;28;20036;-53
2023/07/27 02:16:43;;;;;;;8.48;6.40;;;15.50;99.90;;;;;;5072939;28;20052;-49
2023/07/27 02:19:12;;;;;;;11.40;7.18;;;15.50;99.90;;;;;;5071328;28;20076;-49
2023/07/27 02:21:38;;;;;;;9.23;6.40;;;15.50;99.90;;;;;;5071352;28;20040;-49
2023/07/27 02:24:05;;;;;;;9.93;7.35;;;15.40;99.90;;;;;;5073789;28;20040;-48
2023/07/27 02:26:31;;;;;;;10.15;7.20;;;15.40;99.90;;;;;;5075761;28;20103;-49
2023/07/27 02:28:58;;;;;;;11.05;7.28;;;15.40;99.90;;;;;;5072166;28;20076;-48
2023/07/27 02:31:24;;;;;;;11.38;7.60;;;15.30;99.90;;;;;;5072612;28;20490;-52
2023/07/27 02:33:50;;;;;;;11.00;7.50;;;15.30;99.90;;;;;;5072289;28;20040;-53
2023/07/27 02:36:16;;;;;;;10.70;7.82;;;15.30;99.90;;;;;;5076371;28;20495;-49
2023/07/27 02:38:42;;;;;;;10.10;7.82;;;15.20;99.90;;;;;;5071866;28;20044;-50
2023/07/27 02:41:10;;;;;;;10.63;7.82;;;15.20;99.90;;;;;;5072339;28;20052;-51
2023/07/27 02:43:36;;;;;;;11.27;7.90;;;15.20;99.90;;;;;;5071061;28;20038;-51
2023/07/27 02:46:04;;;;;;;9.88;7.40;;;15.20;99.90;;;;;;5071956;28;20043;-48
2023/07/27 02:48:30;;;;;;;10.65;7.45;;;15.10;99.90;;;;;;5070260;28;20567;-51
2023/07/27 02:50:55;;;;;;;10.23;7.05;;;15.10;99.90;;;;;;5072145;28;20070;-49
2023/07/27 02:53:21;;;;;;;11.48;7.03;;;15.10;99.90;;;;;;5071090;28;20173;-50
2023/07/27 02:55:57;;;;;;;10.40;7.13;;;15.10;99.90;;;;;;5071724;28;20032;-50
2023/07/27 02:58:23;;;;;;;10.95;7.05;;;15.10;99.90;;;;;;5069997;28;20047;-49
2023/07/27 03:00:58;;;;;;;9.75;7.20;;;15.10;99.90;;;;;;5073140;28;20045;-46
2023/07/27 03:03:24;;;;;;;12.25;6.93;;;15.10;99.90;;;;;;5073619;28;20483;-51
2023/07/27 03:06:00;;;;;;;11.25;7.63;;;15.00;99.90;;;;;;5073435;28;20123;-48
2023/07/27 03:08:27;;;;;;;11.55;7.47;;;15.00;99.90;;;;;;5073361;28;20041;-49
2023/07/27 03:10:53;;;;;;;11.35;7.40;;;14.90;99.90;;;;;;5077988;28;20051;-48
2023/07/27 03:13:20;;;;;;;11.13;7.85;;;14.90;99.90;;;;;;5093586;28;21265;-51
2023/07/27 03:15:45;;;;;;;13.13;7.47;;;14.90;99.90;;;;;;5093871;28;20131;-48
2023/07/27 03:18:11;;;;;;;9.98;7.50;;;14.90;99.90;;;;;;5077035;28;20082;-49
2023/07/27 03:20:40;;;;;;;9.60;6.95;;;14.90;99.90;;;;;;5073325;28;20044;-51
2023/07/27 03:23:07;;;;;;;10.57;7.85;;;14.90;99.90;;;;;;5090787;28;20402;-52
2023/07/27 03:25:34;;;;;;;10.77;7.78;;;14.90;99.90;;;;;;5093733;28;20047;-52
2023/07/27 03:28:05;;;;;;;12.48;8.05;;;14.90;99.90;;;;;;5093385;28;20502;-50
2023/07/27 03:30:31;;;;;;;10.93;7.45;;;14.90;99.90;;;;;;5093298;28;20032;-49
2023/07/27 03:32:57;;;;;;;9.30;7.43;;;14.90;99.90;;;;;;5092411;28;20047;-49
2023/07/27 03:35:23;;;;;;;12.23;8.18;;;14.90;99.90;;;;;;5093414;28;20035;-48
2023/07/27 03:37:50;;;;;;;10.70;7.85;;;14.80;99.90;;;;;;5093107;28;20040;-48
2023/07/27 03:40:17;;;;;;;12.43;8.38;;;14.80;99.90;;;;;;5092794;28;20036;-52
2023/07/27 03:42:43;;;;;;;12.52;8.15;;;14.70;99.90;;;;;;5078778;28;20063;-50
2023/07/27 03:45:09;;;;;;;11.65;7.88;;;14.70;99.90;;;;;;5072943;28;20475;-51
2023/07/27 03:47:35;;;;;;;14.90;8.27;;;14.60;99.90;;;;;;5070358;28;20048;-48
2023/07/27 03:50:01;;;;;;;11.50;7.97;;;14.60;99.90;;;;;;5073051;28;20025;-48
2023/07/27 03:52:26;;;;;;;10.43;7.57;;;14.60;99.90;;;;;;5072471;28;20060;-48
2023/07/27 03:54:52;;;;;;;12.95;8.13;;;14.70;99.90;;;;;;5072644;28;20037;-50
2023/07/27 03:57:18;;;;;;;11.63;7.50;;;14.60;99.90;;;;;;5082148;28;20036;-50
2023/07/27 03:59:43;;;;;;;11.90;8.38;;;14.70;99.90;;;;;;5085182;28;20086;-48
2023/07/27 04:02:09;;;;;;;11.60;7.72;;;14.60;99.90;;;;;;5072867;28;20036;-51
2023/07/27 04:04:34;;;;;;;11.15;7.43;;;14.60;99.90;;;;;;5072374;28;20093;-50
2023/07/27 04:07:00;;;;;;;10.13;7.40;;;14.70;99.90;;;;;;5072583;28;20040;-48
2023/07/27 04:09:26;;;;;;;10.93;7.85;;;14.70;99.90;;;;;;5077662;28;20131;-49
2023/07/27 04:11:52;;;;;;;9.60;6.72;;;14.50;99.90;;;;;;5090475;28;20039;-45
2023/07/27 04:14:18;;;;;;;10.65;7.70;;;14.60;99.90;;;;;;5088431;28;20066;-50
2023/07/27 04:16:43;;;;;;;10.10;7.45;;;14.60;99.90;;;;;;5080761;28;20166;-51
2023/07/27 04:19:09;;;;;;;13.20;8.15;;;14.60;99.90;;;;;;5090965;28;20044;-49
2023/07/27 04:21:35;;;;;;;10.73;7.53;;;14.60;99.90;;;;;;5092413;28;20139;-50
2023/07/27 04:24:01;;;;;;;10.93;7.95;;;14.50;99.90;;;;;;5074992;28;20040;-49
2023/07/27 04:26:27;;;;;;;12.15;8.90;;;14.60;99.90;;;;;;5072343;28;20098;-48
2023/07/27 04:28:52;;;;;;;12.73;5.07;;;14.60;99.90;;;;;;5088991;28;20052;-47
2023/07/27 04:31:18;;;;;;;12.18;8.18;;;14.60;99.90;;;;;;5092038;28;20037;-49
2023/07/27 04:33:44;;;;;;;10.75;8.02;;;14.60;99.90;;;;;;5090213;28;20039;-48
2023/07/27 04:36:09;;;;;;;12.57;8.75;;;14.60;99.90;;;;;;5079494;28;20078;-50
2023/07/27 04:38:35;;;;;;;10.20;7.88;;;14.60;99.90;;;;;;5072080;28;20039;-51
2023/07/27 04:41:01;;;;;;;11.68;7.82;;;14.60;99.90;;;;;;5089755;28;20047;-48
2023/07/27 04:43:26;;;;;;;10.20;7.90;;;14.60;99.90;;;;;;5092005;28;20070;-50
2023/07/27 04:45:52;;;;;;;11.30;8.32;;;14.60;99.90;;;;;;5077323;28;20041;-49
2023/07/27 04:48:18;;;;;;;11.32;7.95;;;14.70;99.90;;;;;;5071613;28;20498;-52
2023/07/27 04:50:43;;;;;;;9.75;6.97;;;14.70;99.90;;;;;;5071520;28;20517;-50
2023/07/27 04:53:09;;;;;;;11.48;7.85;;;14.60;99.90;;;;;;5071318;28;20105;-51
2023/07/27 04:55:35;;;;;;;8.45;4.72;;;14.70;99.90;;;;;;5071739;28;20778;-49
2023/07/27 04:58:00;;;;;;;13.43;6.22;;;14.60;99.90;;;;;;5071262;28;20040;-47
2023/07/27 05:00:26;;;;;;;13.93;9.27;;;14.70;99.90;;;;;;5070819;28;20049;-51
2023/07/27 05:02:52;;;;;;;14.40;8.55;;;14.60;99.90;;;;;;5075811;28;20036;-50
2023/07/27 05:05:17;;;;;;;10.30;6.22;;;14.70;99.90;;;;;;5088975;28;20043;-48
2023/07/27 05:07:43;;;;;;;12.73;9.10;;;14.70;99.90;;;;;;5088397;28;20032;-47
2023/07/27 05:10:09;;;;;;;13.63;10.15;;;14.60;99.90;;;;;;5073067;28;20127;-48
2023/07/27 05:12:35;;;;;;;14.18;9.98;;;14.70;99.90;;;;;;5091655;28;20150;-49
2023/07/27 05:15:00;;;;;;;14.32;10.10;;;14.70;99.90;;;;;;5090492;28;20067;-49
2023/07/27 05:17:26;;;;;;;13.07;6.97;;;14.80;99.90;;;;;;5091204;28;20048;-49
2023/07/27 05:19:56;;;;;;;14.13;9.88;;;14.70;99.90;;;;;;5091367;28;20177;-49
2023/07/27 05:22:21;;;;;;;14.48;10.07;;;14.70;99.90;;;;;;5078480;28;20063;-49
2023/07/27 05:24:47;;;;;;;13.13;9.52;;;14.80;99.90;;;;;;5068383;28;20572;-49
2023/07/27 05:27:13;;;;;;;13.25;10.18;;;14.80;99.90;;;;;;5070860;28;20066;-51
2023/07/27 05:29:38;;;;;;;14.18;7.43;;;14.70;99.90;;;;;;5070186;28;20033;-50
2023/07/27 05:32:04;;;;;;;15.82;10.70;;;14.70;99.90;;;;;;5068836;28;20041;-51
2023/07/27 05:34:30;;;;;;;15.20;10.82;;;14.80;99.90;;;;;;5067632;28;20037;-48
2023/07/27 05:36:56;;;;;;;13.88;10.82;;;14.80;99.90;;;;;;5069453;28;20414;-48
2023/07/27 05:39:21;;;;;;;14.45;11.40;;;14.80;99.90;;;;;;5067420;28;20044;-50
2023/07/27 05:41:47;;;;;;;13.65;10.73;;;14.90;99.90;;;;;;5068751;28;20153;-51
2023/07/27 05:44:13;;;;;;;19.33;8.65;;;14.80;99.90;;;;;;5069304;28;20127;-48
2023/07/27 05:46:38;;;;;;;16.15;11.80;;;14.50;99.90;;;;;;5066938;28;20043;-50
2023/07/27 05:49:05;;;;;;;14.98;11.52;;;14.80;99.90;;;;;;5070370;28;20037;-49
2023/07/27 05:51:31;;;;;;;16.40;11.30;;;14.80;99.90;;;;;;5068429;28;20128;-51
2023/07/27 05:53:56;;;;;;;16.17;11.45;;;15.00;99.90;;;;;;5068230;28;20139;-48
2023/07/27 05:56:22;;;;;;;15.90;11.40;;;14.80;99.90;;;;;;5067579;28;20037;-48
2023/07/27 05:58:48;;;;;;;17.08;8.55;;;14.90;99.90;;;;;;5068636;28;20115;-50
2023/07/27 06:01:16;;;;;;;16.17;12.40;;;14.90;99.90;;;;;;5067281;28;20068;-50
2023/07/27 06:03:42;;;;;;;16.70;9.68;;;14.90;99.90;;;;;;5069574;28;20507;-49
2023/07/27 06:06:08;;;;;;;16.42;9.38;;;14.90;99.90;;;;;;5069771;28;20043;-50
2023/07/27 06:08:33;;;;;;;18.77;13.75;;;14.90;99.90;;;;;;5068102;28;20037;-51
2023/07/27 06:11:04;;;;;;;18.85;9.88;;;15.00;99.90;;;;;;5068651;28;20127;-46
2023/07/27 06:13:31;;;;;;;21.33;15.02;;;15.00;99.90;;;;;;5068393;28;20047;-49
2023/07/27 06:15:56;;;;;;;24.70;15.95;;;15.00;99.90;;;;;;5068296;28;20048;-50
2023/07/27 06:18:22;;;;;;;19.58;11.57;;;15.00;99.90;;;;;;5070643;28;20044;-45
2023/07/27 06:20:47;;;;;;;20.30;16.13;;;14.90;99.90;;;;;;5070683;28;20403;-48
2023/07/27 06:23:13;;;;;;;20.33;14.82;;;14.90;99.90;;;;;;5062701;28;20476;-50
2023/07/27 06:25:43;;;;;;;21.00;15.90;;;14.90;99.90;;;;;;5066718;28;20040;-49
2023/07/27 06:28:09;;;;;;;19.45;15.52;;;14.90;99.90;;;;;;5073403;28;20036;-50
2023/07/27 06:30:38;;;;;;;20.88;15.85;;;14.90;99.90;;;;;;5069674;28;20085;-51
2023/07/27 06:33:07;;;;;;;23.13;11.75;;;15.00;99.90;;;;;;5067780;28;20040;-51
2023/07/27 06:35:33;;;;;;;22.02;15.63;;;15.10;99.90;;;;;;5066682;28;20040;-50
2023/07/27 06:37:59;;;;;;;18.88;15.10;;;15.00;99.90;;;;;;5067418;28;20037;-50
2023/07/27 06:40:25;;;;;;;20.67;16.17;;;15.10;99.90;;;;;;5065664;28;20044;-48
2023/07/27 06:42:51;;;;;;;18.42;10.55;;;15.00;99.90;;;;;;5068098;28;20381;-47
2023/07/27 06:45:17;;;;;;;20.80;14.60;;;15.10;99.90;;;;;;5066232;28;20044;-49
2023/07/27 06:47:43;;;;;;;18.98;10.27;;;15.00;99.90;;;;;;5073596;28;20040;-51
2023/07/27 06:50:09;;;;;;;18.33;14.10;;;15.20;99.90;;;;;;5065822;28;20044;-47
2023/07/27 06:52:35;;;;;;;20.20;15.32;;;15.00;99.90;;;;;;5066981;28;20036;-51
2023/07/27 06:55:00;;;;;;;19.63;15.55;;;15.00;99.90;;;;;;5067506;28;20075;-51
2023/07/27 06:57:26;;;;;;;16.70;13.30;;;15.20;99.90;;;;;;5065779;28;20041;-50
2023/07/27 06:59:52;;;;;;;15.50;12.38;;;15.20;99.90;;;;;;5072636;28;20036;-53
2023/07/27 07:02:18;;;;;;;16.52;9.35;;;15.20;99.90;;;;;;5070154;28;20046;-51
2023/07/27 07:04:45;;;;;;;15.85;9.73;;;15.10;99.90;;;;;;5071457;28;20553;-49
2023/07/27 07:07:11;;;;;;;16.55;12.85;;;15.20;99.90;;;;;;5071409;28;20038;-50
2023/07/27 07:09:38;;;;;;;17.85;14.27;;;15.00;99.90;;;;;;5072616;28;20117;-49
2023/07/27 07:12:04;;;;;;;17.10;12.50;;;15.20;99.90;;;;;;5068242;28;20465;-49
2023/07/27 07:14:31;;;;;;;14.10;12.02;;;15.20;99.90;;;;;;5061627;28;20484;-51
2023/07/27 07:16:57;;;;;;;14.32;11.73;;;15.20;99.90;;;;;;5062234;28;20024;-50
2023/07/27 07:19:23;;;;;;;13.23;11.32;;;15.20;99.90;;;;;;5062364;28;20044;-50
2023/07/27 07:21:48;;;;;;;15.07;12.02;;;15.10;99.90;;;;;;5062591;28;20037;-50
2023/07/27 07:24:14;;;;;;;13.95;11.20;;;15.30;99.90;;;;;;5063371;28;20476;-50
2023/07/27 07:26:40;;;;;;;13.18;7.68;;;15.20;99.90;;;;;;5063716;28;20406;-51
2023/07/27 07:29:07;;;;;;;14.60;11.90;;;15.20;99.90;;;;;;5061869;28;20049;-50
2023/07/27 07:31:33;;;;;;;14.20;8.27;;;15.30;99.90;;;;;;5062086;28;20422;-52
2023/07/27 07:33:58;;;;;;;13.77;10.32;;;15.30;99.90;;;;;;5061831;28;20032;-53
2023/07/27 07:36:25;;;;;;;12.20;9.70;;;15.10;99.90;;;;;;5054891;28;20041;-51
2023/07/27 07:38:51;;;;;;;12.00;6.63;;;15.40;99.90;;;;;;5061054;28;20029;-52
2023/07/27 07:41:17;;;;;;;10.07;8.20;;;15.20;99.90;;;;;;5060654;28;20119;-53
2023/07/27 07:43:43;;;;;;;10.55;5.35;;;15.30;99.90;;;;;;5061260;28;20455;-51
2023/07/27 07:46:12;;;;;;;8.80;6.93;;;15.30;99.90;;;;;;5061310;28;20050;-51
2023/07/27 07:48:39;;;;;;;9.10;7.40;;;15.60;99.90;;;;;;5060815;28;20039;-53
2023/07/27 07:51:14;;;;;;;8.82;7.38;;;15.30;99.90;;;;;;5062032;28;20037;-51
2023/07/27 07:53:41;;;;;;;10.60;8.00;;;15.50;99.90;;;;;;5059232;28;21522;-54
2023/07/27 07:56:16;;;;;;;10.25;8.13;;;15.30;99.90;;;;;;5061391;28;20391;-54
2023/07/27 07:58:44;;;;;;;10.32;7.63;;;15.50;99.90;;;;;;5067786;28;20400;-55
2023/07/27 08:01:10;;;;;;;7.95;6.70;;;15.50;99.90;;;;;;5060951;28;20076;-52
2023/07/27 08:03:35;;;;;;;7.80;6.45;;;15.50;99.90;;;;;;5058965;28;20040;-55
2023/07/27 08:06:01;;;;;;;8.52;6.40;;;15.50;99.90;;;;;;5060417;28;20484;-50
2023/07/27 08:08:27;;;;;;;8.05;6.05;;;15.40;99.90;;;;;;5059713;28;20549;-53
2023/07/27 08:10:53;;;;;;;9.05;7.18;;;15.70;99.90;;;;;;5061423;28;20028;-53
2023/07/27 08:13:18;;;;;;;8.40;6.70;;;15.70;99.90;;;;;;5061379;28;20068;-49
2023/07/27 08:15:51;;;;;;;7.22;5.97;;;15.70;99.90;;;;;;5061299;28;20033;-51
2023/07/27 08:18:17;;;;;;;8.50;6.90;;;15.60;99.90;;;;;;5058940;28;20067;-53
2023/07/27 08:20:43;;;;;;;7.38;5.70;;;15.60;99.90;;;;;;5059966;28;20078;-55
2023/07/27 08:23:09;;;;;;;7.78;5.82;;;15.80;99.90;;;;;;5060397;28;20123;-55
2023/07/27 08:25:38;;;;;;;6.75;5.25;;;15.70;99.90;;;;;;5060149;28;20032;-52
2023/07/27 08:28:04;;;;;;;8.50;6.20;;;15.90;99.90;;;;;;5058387;28;20052;-51
2023/07/27 08:30:32;;;;;;;7.80;5.60;;;15.70;99.90;;;;;;5059847;28;20037;-52
2023/07/27 08:32:58;;;;;;;6.55;3.85;;;15.80;99.90;;;;;;5057990;28;20090;-54
2023/07/27 08:35:24;;;;;;;6.32;5.47;;;15.80;99.90;;;;;;5058815;28;20384;-56
2023/07/27 08:37:49;;;;;;;8.40;6.13;;;15.90;99.90;;;;;;5056396;28;20032;-51
2023/07/27 08:40:15;;;;;;;6.32;4.00;;;15.90;99.90;;;;;;5057983;28;20429;-55
2023/07/27 08:42:43;;;;;;;7.45;4.30;;;15.90;99.90;;;;;;5060161;28;20067;-54
2023/07/27 08:45:14;;;;;;;6.35;5.65;;;15.90;99.90;;;;;;5060914;28;20094;-52
2023/07/27 08:47:41;;;;;;;7.03;6.10;;;16.20;99.90;;;;;;5065725;28;20041;-54
2023/07/27 08:50:07;;;;;;;6.60;4.53;;;16.30;99.90;;;;;;5069650;28;20101;-51
2023/07/27 08:52:33;;;;;;;5.75;5.15;;;16.40;99.90;;;;;;5065028;28;20122;-50
2023/07/27 08:54:59;;;;;;;6.88;4.13;;;16.20;99.90;;;;;;5067396;28;20475;-54
2023/07/27 08:57:24;;;;;;;5.53;4.85;;;16.30;99.90;;;;;;5069605;28;20089;-58
2023/07/27 08:59:51;;;;;;;5.68;4.97;;;16.60;99.90;;;;;;5067118;28;20391;-54
2023/07/27 09:02:17;;;;;;;7.45;5.50;;;16.50;99.90;;;;;;5064498;28;20052;-52
2023/07/27 09:04:42;;;;;;;6.13;4.30;;;16.70;99.90;;;;;;5069165;28;20036;-52
2023/07/27 09:07:08;;;;;;;5.68;4.70;;;16.80;99.90;;;;;;5067417;28;20036;-49
2023/07/27 09:09:35;;;;;;;6.00;4.75;;;16.70;99.90;;;;;;5068368;28;20040;-56
2023/07/27 09:12:03;;;;;;;5.40;4.60;;;17.00;99.90;;;;;;5065669;28;20047;-54
2023/07/27 09:14:35;;;;;;;7.25;5.10;;;16.90;99.90;;;;;;5069656;28;20181;-52
2023/07/27 09:17:01;;;;;;;7.07;4.10;;;17.00;99.90;;;;;;5067429;28;20089;-54
2023/07/27 09:19:32;;;;;;;5.93;5.15;;;17.10;99.90;;;;;;5069553;28;20399;-51
2023/07/27 09:21:58;;;;;;;7.22;5.82;;;17.10;99.90;;;;;;5061716;28;20249;-55
2023/07/27 09:24:23;;;;;;;6.25;4.60;;;16.90;99.90;;;;;;5059985;28;20127;-53
2023/07/27 09:26:53;;;;;;;5.57;4.88;;;17.20;99.90;;;;;;5058380;28;20361;-51
2023/07/27 09:29:20;;;;;;;5.72;5.10;;;17.20;99.90;;;;;;5057953;28;20484;-55
2023/07/27 09:31:57;;;;;;;5.35;4.82;;;17.00;99.90;;;;;;5058746;28;20029;-51
2023/07/27 09:34:24;;;;;;;6.28;5.68;;;17.10;99.90;;;;;;5058748;28;20044;-57
2023/07/27 09:36:50;;;;;;;7.65;6.03;;;17.30;99.90;;;;;;5058139;28;20120;-51
2023/07/27 09:39:16;;;;;;;6.00;5.40;;;17.40;99.90;;;;;;5058267;28;20130;-52
2023/07/27 09:41:46;;;;;;;6.63;5.18;;;17.50;99.90;;;;;;5057152;28;20047;-50
2023/07/27 09:44:14;;;;;;;6.47;5.47;;;17.30;99.90;;;;;;5061014;28;20040;-52
2023/07/27 09:46:44;;;;;;;7.30;5.00;;;17.70;99.90;;;;;;5062314;28;20044;-56
2023/07/27 09:49:11;;;;;;;7.65;5.47;;;17.60;99.90;;;;;;5061632;28;20063;-53
2023/07/27 09:51:38;;;;;;;6.00;5.35;;;17.50;99.90;;;;;;5060803;28;20048;-56
2023/07/27 09:54:05;;;;;;;5.63;5.03;;;17.80;99.90;;;;;;5060908;28;20135;-52
2023/07/27 09:56:31;;;;;;;6.30;4.72;;;17.80;99.90;;;;;;5060467;28;20052;-52
2023/07/27 09:58:58;;;;;;;5.70;5.20;;;17.70;99.90;;;;;;5058502;28;20040;-54
2023/07/27 10:01:25;;;;;;;5.25;4.50;;;17.90;99.90;;;;;;5062494;28;20105;-53
2023/07/27 10:03:50;;;;;;;5.90;5.40;;;17.80;99.90;;;;;;5061289;28;20069;-49
2023/07/27 10:06:17;;;;;;;6.65;5.90;;;18.00;99.90;;;;;;5061923;28;20088;-47
2023/07/27 10:08:45;;;;;;;7.05;5.63;;;17.80;99.90;;;;;;5060904;28;20128;-52
2023/07/27 10:11:11;;;;;;;6.32;5.72;;;18.10;99.90;;;;;;5060804;28;20098;-52
2023/07/27 10:13:43;;;;;;;6.78;6.07;;;18.00;99.90;;;;;;5062090;28;20029;-52
2023/07/27 10:16:17;;;;;;;6.38;5.72;;;18.20;99.90;;;;;;5060922;28;20039;-53
2023/07/27 10:18:45;;;;;;;6.13;5.30;;;18.20;99.90;;;;;;5057870;28;20040;-56
2023/07/27 10:21:21;;;;;;;5.95;5.35;;;18.20;99.90;;;;;;5059164;28;20035;-53
2023/07/27 10:24:01;;;;;;;6.35;5.15;;;18.20;99.90;;;;;;5059257;28;20036;-52
2023/07/27 10:26:46;;;;;;;6.82;5.68;;;18.00;99.90;;;;;;5058721;28;20044;-55
2023/07/27 10:29:15;;;;;;;6.70;6.10;;;18.20;99.90;;;;;;5060919;28;20051;-54
2023/07/27 10:31:43;;;;;;;6.80;6.20;;;18.00;99.90;;;;;;5061479;28;20471;-52
2023/07/27 10:34:15;;;;;;;6.65;6.05;;;18.20;99.90;;;;;;5064940;28;20487;-53
2023/07/27 10:36:51;;;;;;;7.10;6.40;;;18.20;99.90;;;;;;5065513;28;20525;-52
2023/07/27 10:39:18;;;;;;;8.55;5.53;;;18.20;99.90;;;;;;5065482;28;20036;-52
2023/07/27 10:42:08;;;;;;;7.00;6.40;;;18.20;99.90;;;;;;5064475;28;20028;-52
2023/07/27 10:44:42;;;;;;;7.05;6.30;;;18.30;99.90;;;;;;5065304;28;20076;-53
2023/07/27 10:47:13;;;;;;;6.50;5.75;;;18.00;99.90;;;;;;5065326;28;20032;-54
2023/07/27 10:49:41;;;;;;;7.07;6.32;;;18.00;99.90;;;;;;5057737;28;20102;-55
2023/07/27 10:52:08;;;;;;;7.18;6.47;;;18.20;99.90;;;;;;5063697;28;20047;-54
2023/07/27 10:54:39;;;;;;;7.55;6.85;;;18.20;99.90;;;;;;5063083;28;20045;-51
2023/07/27 10:57:09;;;;;;;8.07;7.30;;;18.20;99.90;;;;;;5062423;28;20028;-51
2023/07/27 10:59:47;;;;;;;7.82;6.50;;;18.40;99.90;;;;;;5065798;28;20488;-54
2023/07/27 11:02:16;;;;;;;8.52;6.75;;;18.10;99.90;;;;;;5066257;28;20045;-53
2023/07/27 11:04:42;;;;;;;6.35;5.75;;;18.50;99.90;;;;;;5071737;28;20041;-53
2023/07/27 11:07:10;;;;;;;8.70;5.32;;;18.20;99.90;;;;;;5071886;28;20062;-53
2023/07/27 11:09:37;;;;;;;6.60;6.00;;;18.30;99.90;;;;;;5071431;28;20123;-51
2023/07/27 11:12:03;;;;;;;6.18;5.57;;;18.40;99.90;;;;;;5071626;28;20361;-52
2023/07/27 11:14:30;;;;;;;6.35;5.28;;;18.90;99.90;;;;;;5073336;28;20120;-47
2023/07/27 11:16:56;;;;;;;6.20;5.60;;;19.00;99.90;;;;;;5073476;28;20043;-55
2023/07/27 11:19:24;;;;;;;6.07;5.47;;;18.90;99.90;;;;;;5072003;28;20044;-51
2023/07/27 11:21:50;;;;;;;5.88;5.20;;;19.00;99.90;;;;;;5072867;28;20048;-52
2023/07/27 11:24:18;;;;;;;4.95;4.45;;;18.90;99.90;;;;;;5071999;28;20041;-52
2023/07/27 11:26:44;;;;;;;5.15;4.20;;;19.00;99.90;;;;;;5071738;28;20047;-52
2023/07/27 11:29:10;;;;;;;5.85;4.25;;;19.30;99.90;;;;;;5072174;28;20048;-50
2023/07/27 11:31:36;;;;;;;5.45;4.15;;;19.20;99.90;;;;;;5072248;28;20037;-56
2023/07/27 11:34:03;;;;;;;4.75;3.80;;;19.20;99.90;;;;;;5072461;28;20115;-53
2023/07/27 11:36:33;;;;;;;4.93;4.30;;;19.30;99.90;;;;;;5072287;28;20044;-52
2023/07/27 11:39:01;;;;;;;6.60;5.10;;;19.30;99.90;;;;;;5090373;28;20039;-52
2023/07/27 11:41:29;;;;;;;6.15;4.10;;;19.30;99.90;;;;;;5092582;28;20109;-54
2023/07/27 11:43:57;;;;;;;4.95;3.53;;;19.20;99.90;;;;;;5092882;28;20159;-55
2023/07/27 11:46:26;;;;;;;4.25;3.25;;;19.30;99.90;;;;;;5091970;28;20479;-52
2023/07/27 11:48:52;;;;;;;4.43;3.40;;;19.30;99.90;;;;;;5092917;28;20086;-50
2023/07/27 11:51:18;;;;;;;4.97;4.25;;;19.40;99.90;;;;;;5093418;28;20064;-51
2023/07/27 11:53:47;;;;;;;3.60;2.85;;;19.40;99.90;;;;;;5092867;28;20087;-49
2023/07/27 11:56:13;;;;;;;5.20;3.53;;;19.50;99.90;;;;;;5092971;28;20048;-54
2023/07/27 11:58:41;;;;;;;3.60;2.92;;;19.40;99.90;;;;;;5093166;28;20044;-52
2023/07/27 12:01:06;;;;;;;4.15;2.70;;;19.30;99.90;;;;;;5092504;28;20597;-51
2023/07/27 12:03:33;;;;;;;4.53;2.30;;;19.50;99.90;;;;;;5072590;28;20103;-50
2023/07/27 12:06:02;;;;;;;3.10;2.20;;;19.50;99.90;;;;;;5091017;28;20032;-48
2023/07/27 12:08:30;;;;;;;4.07;2.20;;;19.50;99.90;;;;;;5092539;28;20372;-50
2023/07/27 12:11:01;;;;;;;2.25;1.65;;;19.50;99.90;;;;;;5092499;28;20493;-53
2023/07/27 12:13:27;;;;;;;2.78;1.77;;;19.60;99.90;;;;;;5092694;28;20114;-49
2023/07/27 12:15:57;;;;;;;3.67;2.00;;;19.60;99.90;;;;;;5092532;28;20063;-52
2023/07/27 12:18:28;;;;;;;3.88;1.88;;;19.60;99.90;;;;;;5092702;28;20044;-52
2023/07/27 12:20:55;;;;;;;4.30;2.42;;;19.50;99.90;;;;;;5092625;28;20104;-49
2023/07/27 12:23:25;;;;;;;6.22;3.05;;;19.60;99.90;;;;;;5092511;28;20032;-52
2023/07/27 12:25:53;;;;;;;5.07;2.60;;;19.50;99.90;;;;;;5092472;28;20082;-52
2023/07/27 12:28:19;;;;;;;2.65;1.50;;;19.20;99.90;;;;;;5092346;28;20028;-55
2023/07/27 12:30:45;;;;;;;3.20;1.83;;;19.40;99.90;;;;;;5091243;28;20070;-52
2023/07/27 12:33:11;;;;;;;4.43;2.25;;;19.40;99.90;;;;;;5092138;28;20447;-50
2023/07/27 12:35:38;;;;;;;4.30;1.98;;;19.50;99.90;;;;;;5092272;28;20028;-53
2023/07/27 12:38:03;;;;;;;3.55;1.63;;;19.50;99.90;;;;;;5084649;28;20037;-53
2023/07/27 12:40:29;;;;;;;3.50;1.30;;;19.20;99.90;;;;;;5071176;28;20086;-50